Time;durP1;ratioP1;P1;durP2;ratioP2;P2;SDS_P1;SDS_P2;PMS_P1;PMS_P2;Temp;Humidity;BMP_temperature;BMP_pressure;BME280_temperature;BME280_humidity;BME280_pressure;Samples;Min_cycle;Max_cycle;Signal;HPM_P1;HPM_P2
2023/01/18 00:01:08;;;;;;;;;;;21.30;41.80;;;;;;5074820;28;19971;-62
2023/01/18 00:03:35;;;;;;;;;;;21.30;41.80;;;;;;5074817;28;20019;-62
2023/01/18 00:06:03;;;;;;;;;;;21.20;41.70;;;;;;5074556;28;19921;-63
2023/01/18 00:08:31;;;;;;;;;;;21.30;41.80;;;;;;5074596;28;19951;-62
2023/01/18 00:11:02;;;;;;;;;;;21.30;41.70;;;;;;5074521;28;20315;-62
2023/01/18 00:13:29;;;;;;;;;;;21.30;41.70;;;;;;5073917;28;20425;-62
2023/01/18 00:16:06;;;;;;;;;;;21.30;41.70;;;;;;5074303;28;19927;-62
2023/01/18 00:18:36;;;;;;;;;;;21.30;41.70;;;;;;5074618;28;19974;-62
2023/01/18 00:21:05;;;;;;;;;;;21.30;42.30;;;;;;5074351;28;19964;-63
2023/01/18 00:23:32;;;;;;;;;;;21.30;41.70;;;;;;5074648;28;19982;-63
2023/01/18 00:26:00;;;;;;;;;;;21.30;41.60;;;;;;5074522;28;20023;-62
2023/01/18 00:28:28;;;;;;;;;;;21.30;41.70;;;;;;5056349;28;20364;-63
2023/01/18 00:30:55;;;;;;;;;;;21.30;41.60;;;;;;5083675;28;20014;-62
2023/01/18 00:33:21;;;;;;;;;;;21.30;41.60;;;;;;5094266;28;20003;-63
2023/01/18 00:35:59;;;;;;;;;;;21.30;41.60;;;;;;5094100;28;19971;-62
2023/01/18 00:38:26;;;;;;;;;;;21.30;41.60;;;;;;5094112;28;20006;-63
2023/01/18 00:40:53;;;;;;;;;;;21.30;41.60;;;;;;5094239;28;20344;-62
2023/01/18 00:46:09;;;;;;;;;;;21.30;41.60;;;;;;5094101;28;19920;-62
2023/01/18 00:48:37;;;;;;;;;;;21.20;41.50;;;;;;5093824;28;19920;-62
2023/01/18 00:51:05;;;;;;;;;;;21.20;41.50;;;;;;5094154;28;19966;-62
2023/01/18 00:53:32;;;;;;;;;;;21.20;41.50;;;;;;5093953;28;20385;-63
2023/01/18 00:55:59;;;;;;;;;;;21.20;41.50;;;;;;5093541;28;19920;-62
2023/01/18 00:58:27;;;;;;;;;;;21.20;41.50;;;;;;5093952;28;20410;-63
2023/01/18 01:00:54;;;;;;;;;;;21.20;41.50;;;;;;5093651;28;20019;-62
2023/01/18 01:03:21;;;;;;;;;;;21.20;41.50;;;;;;5094229;28;19920;-62
2023/01/18 01:08:35;;;;;;;;;;;21.20;41.50;;;;;;5094136;28;19923;-62
2023/01/18 01:11:10;;;;;;;;;;;21.20;41.50;;;;;;5093394;28;19959;-62
2023/01/18 01:27:31;;;;;;;;;;;21.20;42.10;;;;;;5073135;28;20196;-63
2023/01/18 01:29:58;;;;;;;;;;;21.20;41.50;;;;;;5072931;28;20321;-62
2023/01/18 01:32:25;;;;;;;;;;;21.20;41.50;;;;;;5072850;28;20007;-62
2023/01/18 01:34:52;;;;;;;;;;;21.20;41.50;;;;;;5073276;28;19920;-62
2023/01/18 01:37:19;;;;;;;;;;;21.20;41.50;;;;;;5074172;28;19920;-62
2023/01/18 01:39:46;;;;;;;;;;;21.10;41.50;;;;;;5073288;28;19926;-62
2023/01/18 01:42:13;;;;;;;;;;;21.20;41.50;;;;;;5073027;28;19920;-62
2023/01/18 01:44:50;;;;;;;;;;;21.20;41.50;;;;;;5073494;28;19924;-63
2023/01/18 01:47:24;;;;;;;;;;;21.10;41.50;;;;;;5072815;28;20415;-62
2023/01/18 01:49:53;;;;;;;;;;;21.10;41.40;;;;;;5073252;28;19960;-62
2023/01/18 01:52:26;;;;;;;;;;;21.10;41.40;;;;;;5076993;28;19930;-62
2023/01/18 01:55:11;;;;;;;;;;;21.20;41.50;;;;;;5076458;28;20031;-62
2023/01/18 01:57:51;;;;;;;;;;;21.10;41.40;;;;;;5076905;28;20391;-62
2023/01/18 02:00:19;;;;;;;;;;;21.20;41.40;;;;;;5076705;28;19921;-62
2023/01/18 02:02:49;;;;;;;;;;;21.10;41.40;;;;;;5077288;28;19920;-62
2023/01/18 02:05:16;;;;;;;;;;;21.10;41.40;;;;;;5076963;28;20018;-62
2023/01/18 02:07:44;;;;;;;;;;;21.10;41.40;;;;;;5076560;28;19921;-62
2023/01/18 02:10:11;;;;;;;;;;;21.10;41.40;;;;;;5076426;28;19921;-62
2023/01/18 02:12:39;;;;;;;;;;;21.10;41.40;;;;;;5077127;28;20338;-63
2023/01/18 02:15:06;;;;;;;;;;;21.10;41.40;;;;;;5059310;28;19920;-62
2023/01/18 02:17:49;;;;;;;;;;;21.10;41.40;;;;;;5076753;28;19959;-62
2023/01/18 02:20:36;;;;;;;;;;;21.10;41.40;;;;;;5076676;28;20003;-62
2023/01/18 02:23:14;;;;;;;;;;;21.20;41.60;;;;;;5076670;28;20402;-62
2023/01/18 02:26:01;;;;;;;;;;;21.10;41.40;;;;;;5076135;28;20014;-62
2023/01/18 02:28:36;;;;;;;;;;;21.10;41.40;;;;;;5076678;28;20024;-62
2023/01/18 02:31:12;;;;;;;;;;;21.10;41.40;;;;;;5076282;28;19920;-62
2023/01/18 02:33:44;;;;;;;;;;;21.10;41.40;;;;;;5076360;28;20372;-64
2023/01/18 02:36:25;;;;;;;;;;;21.10;41.30;;;;;;5076255;28;20386;-62
2023/01/18 02:38:54;;;;;;;;;;;21.10;41.30;;;;;;5076636;28;20012;-62
2023/01/18 02:47:08;;;;;;;;;;;21.10;41.30;;;;;;5075899;28;19942;-62
2023/01/18 02:49:35;;;;;;;;;;;21.10;41.30;;;;;;5076189;28;20363;-62
2023/01/18 02:52:03;;;;;;;;;;;21.10;41.30;;;;;;5058052;28;19920;-63
2023/01/18 02:54:32;;;;;;;;;;;21.10;41.30;;;;;;5076031;28;20016;-62
2023/01/18 02:57:00;;;;;;;;;;;21.10;41.30;;;;;;5075655;28;19955;-63
2023/01/18 02:59:33;;;;;;;;;;;21.10;41.30;;;;;;5075461;28;20347;-62
2023/01/18 03:02:05;;;;;;;;;;;21.10;41.30;;;;;;5073751;28;20439;-63
2023/01/18 03:04:35;;;;;;;;;;;21.10;41.30;;;;;;5075709;28;19924;-62
2023/01/18 03:07:07;;;;;;;;;;;21.10;41.30;;;;;;5075491;28;20034;-63
2023/01/18 03:09:34;;;;;;;;;;;21.10;41.30;;;;;;5075369;28;19967;-62
2023/01/18 03:12:10;;;;;;;;;;;21.10;41.30;;;;;;5075817;28;20398;-62
2023/01/18 03:14:45;;;;;;;;;;;21.10;41.30;;;;;;5075230;28;20372;-63
2023/01/18 03:17:16;;;;;;;;;;;21.10;41.30;;;;;;5075699;28;20039;-63
2023/01/18 03:25:41;;;;;;;;;;;21.10;41.30;;;;;;5075168;28;19926;-63
2023/01/18 03:33:49;;;;;;;;;;;21.10;41.30;;;;;;5074875;28;20357;-63
2023/01/18 03:36:19;;;;;;;;;;;21.00;41.20;;;;;;5074963;28;19920;-63
2023/01/18 03:38:47;;;;;;;;;;;21.10;41.30;;;;;;5075315;28;20419;-63
2023/01/18 03:41:15;;;;;;;;;;;21.00;41.20;;;;;;5074626;28;20011;-62
2023/01/18 03:43:43;;;;;;;;;;;21.10;41.20;;;;;;5074782;28;20442;-62
2023/01/18 03:46:11;;;;;;;;;;;21.00;41.20;;;;;;5074995;28;19977;-63
2023/01/18 03:48:38;;;;;;;;;;;21.00;41.20;;;;;;5074120;28;19966;-63
2023/01/18 03:51:10;;;;;;;;;;;21.00;41.20;;;;;;5074711;28;19920;-62
2023/01/18 03:53:57;;;;;;;;;;;21.00;41.20;;;;;;5074990;28;19920;-63
2023/01/18 03:56:31;;;;;;;;;;;21.00;41.20;;;;;;5074973;28;20383;-63
2023/01/18 03:58:59;;;;;;;;;;;21.00;41.20;;;;;;5074434;28;19962;-63
2023/01/18 04:01:27;;;;;;;;;;;21.00;41.20;;;;;;5074509;28;20355;-62
2023/01/18 04:03:54;;;;;;;;;;;21.00;41.20;;;;;;5073567;28;19951;-63
2023/01/18 04:06:22;;;;;;;;;;;21.00;41.20;;;;;;5074560;28;19967;-63
2023/01/18 04:08:49;;;;;;;;;;;21.00;41.20;;;;;;5074259;28;19966;-62
2023/01/18 04:11:16;;;;;;;;;;;21.00;41.20;;;;;;5074707;28;19921;-63
2023/01/18 04:13:43;;;;;;;;;;;21.00;41.20;;;;;;5073867;28;20299;-63
2023/01/18 04:16:10;;;;;;;;;;;21.00;41.20;;;;;;5074291;28;20366;-62
2023/01/18 04:18:37;;;;;;;;;;;21.00;41.20;;;;;;5074215;28;19974;-63
2023/01/18 04:21:04;;;;;;;;;;;21.00;41.20;;;;;;5073657;28;19926;-62
2023/01/18 04:23:31;;;;;;;;;;;21.00;41.20;;;;;;5074297;28;20396;-62
2023/01/18 04:25:58;;;;;;;;;;;21.00;41.20;;;;;;5073463;28;19920;-63
2023/01/18 04:28:26;;;;;;;;;;;21.00;41.20;;;;;;5072260;28;20011;-62
2023/01/18 04:30:54;;;;;;;;;;;21.00;41.20;;;;;;5069463;28;19920;-62
2023/01/18 04:33:21;;;;;;;;;;;21.00;41.20;;;;;;5073194;28;20380;-62
2023/01/18 04:35:48;;;;;;;;;;;21.00;41.20;;;;;;5056501;28;19935;-62
2023/01/18 04:38:16;;;;;;;;;;;21.00;41.20;;;;;;5071826;28;19982;-63
2023/01/18 04:40:42;;;;;;;;;;;21.00;41.20;;;;;;5072625;28;19920;-62
2023/01/18 04:43:09;;;;;;;;;;;21.00;41.20;;;;;;5073783;28;19963;-63
2023/01/18 04:45:37;;;;;;;;;;;21.00;41.20;;;;;;5074146;28;20019;-63
2023/01/18 04:48:04;;;;;;;;;;;21.00;41.10;;;;;;5073646;28;19943;-63
2023/01/18 04:50:31;;;;;;;;;;;21.00;41.10;;;;;;5073932;28;20295;-63
2023/01/18 04:52:58;;;;;;;;;;;21.00;41.10;;;;;;5055291;28;19943;-63
2023/01/18 04:55:26;;;;;;;;;;;21.00;41.10;;;;;;5073705;28;19920;-63
2023/01/18 04:57:55;;;;;;;;;;;21.00;41.10;;;;;;5073684;28;19966;-63
2023/01/18 05:00:23;;;;;;;;;;;21.00;41.20;;;;;;5073203;28;19990;-63
2023/01/18 05:02:50;;;;;;;;;;;21.00;41.20;;;;;;5073105;28;19928;-62
2023/01/18 05:05:17;;;;;;;;;;;21.00;41.10;;;;;;5093558;28;20010;-63
2023/01/18 05:07:44;;;;;;;;;;;21.00;41.10;;;;;;5077626;28;20015;-62
2023/01/18 05:10:11;;;;;;;;;;;21.00;41.10;;;;;;5073256;28;19970;-62
2023/01/18 05:12:38;;;;;;;;;;;21.00;41.10;;;;;;5073586;28;20372;-62
2023/01/18 05:15:05;;;;;;;;;;;21.00;41.10;;;;;;5073211;28;19920;-64
2023/01/18 05:17:33;;;;;;;;;;;21.00;41.10;;;;;;5073414;28;19923;-62
2023/01/18 05:20:01;;;;;;;;;;;21.00;41.10;;;;;;5072985;28;19920;-62
2023/01/18 05:22:28;;;;;;;;;;;21.00;41.10;;;;;;5065157;28;19920;-62
2023/01/18 05:24:55;;;;;;;;;;;20.90;41.10;;;;;;5072523;28;19960;-62
2023/01/18 05:27:22;;;;;;;;;;;20.90;41.10;;;;;;5072440;28;19931;-62
2023/01/18 05:29:49;;;;;;;;;;;20.90;41.10;;;;;;5072637;28;19990;-62
2023/01/18 05:32:16;;;;;;;;;;;20.90;41.10;;;;;;5073282;28;19920;-63
2023/01/18 05:34:43;;;;;;;;;;;21.00;41.10;;;;;;5071879;28;19967;-62
2023/01/18 05:37:10;;;;;;;;;;;21.00;41.70;;;;;;5071461;28;19964;-63
2023/01/18 05:39:37;;;;;;;;;;;20.90;40.90;;;;;;5072953;28;19920;-62
2023/01/18 05:42:05;;;;;;;;;;;20.90;40.80;;;;;;5071707;28;20318;-62
2023/01/18 05:44:32;;;;;;;;;;;20.90;40.80;;;;;;5070298;28;19931;-62
2023/01/18 05:46:59;;;;;;;;;;;20.90;40.80;;;;;;5070546;28;20283;-62
2023/01/18 05:49:27;;;;;;;;;;;20.80;40.70;;;;;;5072495;28;19963;-63
2023/01/18 05:51:54;;;;;;;;;;;20.90;40.80;;;;;;5071635;28;19967;-62
2023/01/18 05:54:21;;;;;;;;;;;20.90;40.80;;;;;;5072869;28;20318;-63
2023/01/18 05:56:48;;;;;;;;;;;20.90;41.30;;;;;;5071281;28;19920;-62
2023/01/18 05:59:15;;;;;;;;;;;20.90;40.70;;;;;;5071792;28;19928;-62
2023/01/18 06:01:42;;;;;;;;;;;20.90;40.70;;;;;;5070573;28;19920;-62
2023/01/18 06:04:09;;;;;;;;;;;20.90;40.70;;;;;;5072142;28;20306;-62
2023/01/18 06:06:36;;;;;;;;;;;21.00;40.70;;;;;;5072159;28;19920;-62
2023/01/18 06:09:04;;;;;;;;;;;21.00;40.60;;;;;;5071960;28;20372;-62
2023/01/18 06:11:31;;;;;;;;;;;21.00;40.60;;;;;;5071954;28;20006;-62
2023/01/18 06:13:58;;;;;;;;;;;21.00;40.50;;;;;;5071850;28;20353;-62
2023/01/18 06:16:25;;;;;;;;;;;21.00;40.40;;;;;;5070994;28;20011;-62
2023/01/18 06:18:52;;;;;;;;;;;21.10;41.00;;;;;;5070255;28;20372;-64
2023/01/18 06:21:19;;;;;;;;;;;21.10;40.40;;;;;;5071609;28;19927;-62
2023/01/18 06:23:46;;;;;;;;;;;21.10;41.00;;;;;;5073676;28;19924;-62
2023/01/18 06:26:13;;;;;;;;;;;21.10;40.40;;;;;;5067710;28;19929;-63
2023/01/18 06:28:40;;;;;;;;;;;21.20;40.40;;;;;;5072284;28;20352;-62
2023/01/18 06:31:07;;;;;;;;;;;21.20;40.40;;;;;;5063407;28;19928;-64
2023/01/18 06:33:34;;;;;;;;;;;21.20;40.40;;;;;;5068248;28;19926;-62
2023/01/18 06:36:01;;;;;;;;;;;21.20;40.40;;;;;;5065140;28;19924;-61
2023/01/18 06:38:28;;;;;;;;;;;21.20;40.30;;;;;;5064361;28;19955;-61
2023/01/18 06:40:56;;;;;;;;;;;21.30;40.40;;;;;;5066718;28;20468;-61
2023/01/18 06:43:23;;;;;;;;;;;21.30;40.40;;;;;;5075098;28;20311;-65
2023/01/18 06:45:51;;;;;;;;;;;21.30;40.30;;;;;;5069948;28;20019;-62
2023/01/18 06:48:18;;;;;;;;;;;21.40;40.30;;;;;;5067676;28;20372;-62
2023/01/18 06:50:45;;;;;;;;;;;21.40;40.30;;;;;;5065018;28;20019;-63
2023/01/18 06:53:13;;;;;;;;;;;21.50;40.30;;;;;;5063811;28;19928;-63
2023/01/18 06:55:40;;;;;;;;;;;21.50;40.30;;;;;;5048109;28;20023;-64
2023/01/18 06:58:07;;;;;;;;;;;21.60;40.70;;;;;;5066247;28;19920;-63
2023/01/18 07:00:34;;;;;;;;;;;21.60;40.90;;;;;;5063744;28;19931;-62
2023/01/18 07:03:01;;;;;;;;;;;21.60;40.90;;;;;;5066335;28;19939;-65
2023/01/18 07:05:29;;;;;;;;;;;21.70;40.90;;;;;;5065080;28;19928;-63
2023/01/18 07:07:56;;;;;;;;;;;21.70;40.90;;;;;;5062401;28;19928;-62
2023/01/18 07:10:23;;;;;;;;;;;21.80;40.80;;;;;;5048529;28;19934;-63
2023/01/18 07:12:50;;;;;;;;;;;21.80;40.70;;;;;;5067921;28;20303;-62
2023/01/18 07:15:17;;;;;;;;;;;21.90;40.50;;;;;;5067283;28;19920;-63
2023/01/18 07:17:49;;;;;;;;;;;21.90;40.60;;;;;;5064264;28;19978;-65
2023/01/18 07:20:17;;;;;;;;;;;22.00;40.90;;;;;;5069172;28;19989;-63
2023/01/18 07:22:44;;;;;;;;;;;22.00;40.90;;;;;;5065703;28;19934;-63
2023/01/18 07:25:12;;;;;;;;;;;22.10;41.00;;;;;;5064291;28;19933;-64
2023/01/18 07:27:42;;;;;;;;;;;22.10;40.90;;;;;;5069825;28;20431;-63
2023/01/18 07:30:11;;;;;;;;;;;22.20;40.90;;;;;;5068350;28;19935;-62
2023/01/18 07:32:38;;;;;;;;;;;22.20;41.00;;;;;;5069162;28;20312;-62
2023/01/18 07:35:06;;;;;;;;;;;22.30;40.90;;;;;;5064016;28;19931;-65
2023/01/18 07:37:34;;;;;;;;;;;22.30;40.90;;;;;;5065385;28;19931;-63
2023/01/18 07:40:02;;;;;;;;;;;22.30;40.90;;;;;;5067733;28;19950;-64
2023/01/18 07:42:30;;;;;;;;;;;22.40;40.80;;;;;;5067482;28;19928;-63
2023/01/18 07:44:57;;;;;;;;;;;22.50;40.80;;;;;;5066170;28;19960;-61
2023/01/18 07:47:24;;;;;;;;;;;22.50;40.80;;;;;;5067333;28;19924;-65
2023/01/18 07:49:51;;;;;;;;;;;22.50;40.70;;;;;;5064438;28;19964;-71
2023/01/18 07:52:18;;;;;;;;;;;22.60;40.70;;;;;;5068657;28;19920;-63
2023/01/18 07:54:45;;;;;;;;;;;22.70;40.90;;;;;;5051031;28;20014;-68
2023/01/18 07:57:12;;;;;;;;;;;22.70;41.00;;;;;;5060988;28;20120;-62
2023/01/18 07:59:39;;;;;;;;;;;22.70;40.70;;;;;;5064407;28;19920;-64
2023/01/18 08:02:09;;;;;;;;;;;22.80;40.80;;;;;;5063320;28;19998;-66
2023/01/18 08:04:37;;;;;;;;;;;22.80;40.90;;;;;;5063379;28;19929;-66
2023/01/18 08:07:04;;;;;;;;;;;22.80;40.90;;;;;;5062655;28;19990;-66
2023/01/18 08:09:34;;;;;;;;;;;22.80;40.90;;;;;;5064706;28;19929;-65
2023/01/18 08:12:01;;;;;;;;;;;22.90;40.80;;;;;;5063688;28;20023;-67
2023/01/18 08:14:28;;;;;;;;;;;22.90;40.80;;;;;;5044238;28;20070;-63
2023/01/18 08:16:55;;;;;;;;;;;23.00;40.70;;;;;;5060372;28;20024;-64
2023/01/18 08:19:22;;;;;;;;;;;23.00;40.60;;;;;;5065611;28;19960;-63
2023/01/18 08:21:49;;;;;;;;;;;23.00;40.60;;;;;;5048544;28;19977;-65
2023/01/18 08:24:16;;;;;;;;;;;23.10;40.70;;;;;;5064954;28;19943;-64
2023/01/18 08:26:43;;;;;;;;;;;23.10;40.50;;;;;;5062759;28;20011;-64
2023/01/18 08:29:10;;;;;;;;;;;23.10;40.40;;;;;;5065232;28;20027;-65
2023/01/18 08:31:37;;;;;;;;;;;23.10;40.40;;;;;;5063114;28;20257;-63
2023/01/18 08:34:04;;;;;;;;;;;23.10;40.40;;;;;;5064121;28;20015;-62
2023/01/18 08:36:32;;;;;;;;;;;23.20;40.60;;;;;;5069389;28;19924;-68
2023/01/18 08:38:58;;;;;;;;;;;23.20;40.50;;;;;;5066004;28;19928;-66
2023/01/18 08:41:29;;;;;;;;;;;23.20;40.50;;;;;;5067551;28;20007;-67
2023/01/18 08:43:57;;;;;;;;;;;23.30;40.50;;;;;;5064544;28;19928;-65
2023/01/18 08:46:24;;;;;;;;;;;23.30;40.50;;;;;;5070000;28;20014;-62
2023/01/18 08:48:53;;;;;;;;;;;23.30;40.40;;;;;;5046104;28;19955;-64
2023/01/18 08:51:21;;;;;;;;;;;23.30;40.30;;;;;;5066922;28;20377;-66
2023/01/18 08:53:52;;;;;;;;;;;23.40;40.30;;;;;;5061167;28;19936;-63
2023/01/18 08:56:19;;;;;;;;;;;23.40;40.30;;;;;;5062112;28;19927;-66
2023/01/18 08:58:46;;;;;;;;;;;23.50;40.50;;;;;;5063363;28;19978;-65
2023/01/18 09:01:13;;;;;;;;;;;23.50;40.40;;;;;;5060352;28;20328;-64
2023/01/18 09:03:41;;;;;;;;;;;23.50;40.30;;;;;;5059350;28;19921;-65
2023/01/18 09:06:08;;;;;;;;;;;23.60;40.30;;;;;;5063663;28;19982;-64
2023/01/18 09:08:38;;;;;;;;;;;23.60;40.10;;;;;;5064038;28;19928;-64
2023/01/18 09:11:06;;;;;;;;;;;23.60;40.00;;;;;;5063565;28;19955;-65
2023/01/18 09:13:34;;;;;;;;;;;23.70;40.00;;;;;;5063345;28;19930;-62
2023/01/18 09:16:04;;;;;;;;;;;23.70;40.00;;;;;;5065026;28;20005;-65
2023/01/18 09:18:31;;;;;;;;;;;23.70;39.80;;;;;;5064245;28;20074;-64
2023/01/18 09:20:58;;;;;;;;;;;23.80;39.70;;;;;;5063477;28;20012;-63
2023/01/18 09:23:25;;;;;;;;;;;23.80;39.50;;;;;;5054455;28;19928;-59
2023/01/18 09:26:02;;;;;;;;;;;23.90;39.50;;;;;;5060563;28;20026;-61
2023/01/18 09:28:29;;;;;;;;;;;23.90;39.50;;;;;;5059834;28;19925;-62
2023/01/18 09:31:01;;;;;;;;;;;23.90;39.40;;;;;;5065573;28;20010;-63
2023/01/18 09:33:28;;;;;;;;;;;24.00;39.50;;;;;;5060793;28;20392;-62
2023/01/18 09:36:08;;;;;;;;;;;24.00;39.40;;;;;;5061820;28;20384;-63
2023/01/18 09:38:36;;;;;;;;;;;24.00;39.30;;;;;;5046338;28;19929;-64
2023/01/18 09:41:15;;;;;;;;;;;24.10;39.30;;;;;;5056272;28;20355;-61
2023/01/18 09:43:47;;;;;;;;;;;24.10;39.10;;;;;;5056887;28;20280;-62
2023/01/18 09:46:19;;;;;;;;;;;24.10;39.30;;;;;;5061098;28;19974;-64
2023/01/18 09:48:57;;;;;;;;;;;24.10;39.00;;;;;;5062385;28;20019;-62
2023/01/18 09:51:29;;;;;;;;;;;24.20;39.00;;;;;;5060837;28;20315;-62
2023/01/18 09:54:17;;;;;;;;;;;24.20;38.90;;;;;;5059787;28;19954;-61
2023/01/18 09:56:48;;;;;;;;;;;24.20;38.60;;;;;;5063381;28;19928;-61
2023/01/18 09:59:23;;;;;;;;;;;24.30;38.30;;;;;;5063113;28;20352;-61
2023/01/18 10:01:50;;;;;;;;;;;24.30;38.20;;;;;;5064619;28;19935;-61
2023/01/18 10:04:31;;;;;;;;;;;24.30;38.10;;;;;;5064788;28;19960;-61
2023/01/18 10:07:00;;;;;;;;;;;24.30;38.00;;;;;;5064172;28;19935;-62
2023/01/18 10:09:30;;;;;;;;;;;24.40;37.90;;;;;;5064127;28;19932;-62
2023/01/18 10:12:02;;;;;;;;;;;24.40;37.90;;;;;;5069957;28;20007;-64
2023/01/18 10:14:48;;;;;;;;;;;24.50;37.90;;;;;;5070288;28;20390;-63
2023/01/18 10:17:20;;;;;;;;;;;24.40;37.70;;;;;;5067970;28;20001;-62
2023/01/18 10:19:47;;;;;;;;;;;24.40;37.70;;;;;;5067731;28;20295;-62
2023/01/18 10:22:18;;;;;;;;;;;24.40;37.60;;;;;;5069422;28;20074;-64
2023/01/18 10:25:03;;;;;;;;;;;24.50;37.60;;;;;;5066969;28;20363;-66
2023/01/18 10:27:46;;;;;;;;;;;24.50;37.50;;;;;;5064396;28;19974;-61
2023/01/18 10:30:34;;;;;;;;;;;24.50;37.40;;;;;;5062974;28;19971;-65
2023/01/18 10:33:06;;;;;;;;;;;24.50;37.40;;;;;;5063972;28;19979;-68
2023/01/18 10:35:33;;;;;;;;;;;24.60;37.40;;;;;;5061554;28;20380;-63
2023/01/18 10:38:03;;;;;;;;;;;24.60;37.30;;;;;;5064251;28;19967;-64
2023/01/18 10:40:31;;;;;;;;;;;24.60;37.30;;;;;;5064818;28;20011;-65
2023/01/18 10:43:01;;;;;;;;;;;24.60;37.30;;;;;;5066302;28;19924;-62
2023/01/18 10:45:29;;;;;;;;;;;24.60;37.20;;;;;;5066638;28;20376;-65
2023/01/18 10:47:57;;;;;;;;;;;24.60;37.20;;;;;;5061570;28;19924;-65
2023/01/18 10:50:35;;;;;;;;;;;24.60;37.20;;;;;;5062314;28;19928;-66
2023/01/18 10:53:19;;;;;;;;;;;24.70;37.30;;;;;;5061362;28;20015;-67
2023/01/18 10:55:58;;;;;;;;;;;24.70;37.40;;;;;;5044662;28;19962;-65
2023/01/18 10:58:27;;;;;;;;;;;24.70;37.30;;;;;;5048282;28;20059;-66
2023/01/18 11:00:54;;;;;;;;;;;24.70;37.30;;;;;;5064612;28;20027;-67
2023/01/18 11:03:22;;;;;;;;;;;24.70;37.40;;;;;;5068386;28;19966;-66
2023/01/18 11:05:50;;;;;;;;;;;24.70;37.40;;;;;;5068312;28;20601;-64
2023/01/18 11:08:23;;;;;;;;;;;24.70;37.30;;;;;;5068281;28;19920;-65
2023/01/18 11:11:03;;;;;;;;;;;24.80;37.30;;;;;;5065119;28;19968;-64
2023/01/18 11:13:42;;;;;;;;;;;24.80;37.30;;;;;;5067478;28;19928;-64
2023/01/18 11:16:18;;;;;;;;;;;24.80;37.20;;;;;;5066777;28;19920;-64
2023/01/18 11:19:06;;;;;;;;;;;24.80;37.10;;;;;;5051727;28;19994;-65
2023/01/18 11:21:44;;;;;;;;;;;24.90;37.10;;;;;;5069215;28;19974;-64
2023/01/18 11:24:32;;;;;;;;;;;24.80;37.10;;;;;;5067045;28;20015;-64
2023/01/18 11:27:06;;;;;;;;;;;24.80;37.10;;;;;;5049197;28;19999;-65
2023/01/18 11:29:34;;;;;;;;;;;24.80;37.10;;;;;;5066025;28;19925;-62
2023/01/18 11:32:05;;;;;;;;;;;24.80;37.00;;;;;;5068787;28;19921;-64
2023/01/18 11:34:36;;;;;;;;;;;24.80;37.00;;;;;;5068183;28;20387;-63
2023/01/18 11:37:03;;;;;;;;;;;24.80;37.00;;;;;;5067198;28;19997;-67
2023/01/18 11:39:32;;;;;;;;;;;24.80;36.90;;;;;;5068359;28;19938;-66
2023/01/18 11:42:19;;;;;;;;;;;24.80;36.90;;;;;;5070673;28;20336;-67
2023/01/18 11:45:03;;;;;;;;;;;24.80;36.80;;;;;;5070408;28;19935;-67
2023/01/18 11:47:35;;;;;;;;;;;24.90;36.90;;;;;;5052946;28;19927;-67
2023/01/18 11:50:14;;;;;;;;;;;24.90;36.80;;;;;;5069249;28;20010;-65
2023/01/18 11:52:53;;;;;;;;;;;24.90;36.80;;;;;;5062541;28;19928;-65
2023/01/18 11:55:22;;;;;;;;;;;24.90;36.70;;;;;;5051762;28;20338;-64
2023/01/18 11:57:50;;;;;;;;;;;24.90;36.60;;;;;;5067109;28;19970;-66
2023/01/18 12:00:26;;;;;;;;;;;24.90;36.60;;;;;;5067498;28;19998;-65
2023/01/18 12:03:12;;;;;;;;;;;24.90;36.70;;;;;;5069269;28;20333;-65
2023/01/18 12:05:44;;;;;;;;;;;24.90;36.60;;;;;;5063430;28;19929;-65
2023/01/18 12:08:37;;;;;;;;;;;24.90;36.70;;;;;;5067855;28;19927;-65
2023/01/18 12:11:14;;;;;;;;;;;24.90;36.60;;;;;;5064324;28;19936;-63
2023/01/18 12:13:42;;;;;;;;;;;24.90;36.60;;;;;;5066774;28;19927;-63
2023/01/18 12:16:21;;;;;;;;;;;24.90;36.60;;;;;;5062685;28;19940;-62
2023/01/18 12:19:08;;;;;;;;;;;24.90;36.60;;;;;;5065702;28;20739;-67
2023/01/18 12:21:49;;;;;;;;;;;24.80;37.10;;;;;;5051633;28;19934;-67
2023/01/18 12:24:27;;;;;;;;;;;24.90;37.50;;;;;;5063394;28;20023;-69
2023/01/18 12:26:59;;;;;;;;;;;24.80;37.70;;;;;;5064892;28;19974;-66
2023/01/18 12:29:39;;;;;;;;;;;24.80;37.80;;;;;;5065585;28;19928;-65
2023/01/18 12:32:27;;;;;;;;;;;24.90;37.90;;;;;;5066424;28;20284;-70
2023/01/18 12:35:14;;;;;;;;;;;24.80;37.90;;;;;;5062625;28;20050;-65
2023/01/18 12:37:56;;;;;;;;;;;24.90;38.00;;;;;;5049711;28;19981;-65
2023/01/18 12:40:39;;;;;;;;;;;24.90;37.90;;;;;;5062191;28;19928;-65
2023/01/18 12:43:26;;;;;;;;;;;24.90;37.90;;;;;;5063045;28;19928;-67
2023/01/18 12:46:02;;;;;;;;;;;24.90;37.90;;;;;;5046840;28;19924;-63
2023/01/18 12:48:32;;;;;;;;;;;24.90;37.80;;;;;;5066040;28;19928;-64
2023/01/18 12:50:59;;;;;;;;;;;24.90;37.70;;;;;;5064323;28;19928;-74
2023/01/18 12:53:34;;;;;;;;;;;24.90;37.70;;;;;;5065534;28;20301;-72
2023/01/18 12:56:05;;;;;;;;;;;24.90;37.70;;;;;;5063615;28;20355;-71
2023/01/18 12:58:33;;;;;;;;;;;25.00;37.60;;;;;;5061768;28;20401;-71
2023/01/18 13:01:03;;;;;;;;;;;25.00;37.60;;;;;;5063767;28;19931;-72
2023/01/18 13:03:37;;;;;;;;;;;25.00;37.40;;;;;;5065780;28;19924;-69
2023/01/18 13:06:04;;;;;;;;;;;25.10;37.20;;;;;;5062176;28;19956;-71
2023/01/18 13:08:39;;;;;;;;;;;25.10;37.10;;;;;;5065793;28;19935;-71
2023/01/18 13:11:12;;;;;;;;;;;25.10;37.00;;;;;;5066766;28;19998;-71
2023/01/18 13:13:40;;;;;;;;;;;25.10;37.00;;;;;;5066245;28;20483;-70
2023/01/18 13:16:12;;;;;;;;;;;25.10;36.80;;;;;;5063288;28;19982;-71
2023/01/18 13:18:56;;;;;;;;;;;25.10;36.70;;;;;;5058695;28;19941;-72
2023/01/18 13:21:43;;;;;;;;;;;25.10;36.80;;;;;;5064740;28;19928;-64
2023/01/18 13:24:17;;;;;;;;;;;25.10;36.70;;;;;;5054326;28;20018;-66
2023/01/18 13:26:45;;;;;;;;;;;25.10;36.70;;;;;;5064515;28;20300;-67
2023/01/18 13:29:15;;;;;;;;;;;25.00;36.90;;;;;;5064030;28;19927;-72
2023/01/18 13:31:43;;;;;;;;;;;25.00;37.30;;;;;;5063639;28;19981;-70
2023/01/18 13:34:29;;;;;;;;;;;25.00;37.60;;;;;;5066186;28;19974;-72
2023/01/18 13:36:58;;;;;;;;;;;25.10;37.60;;;;;;5062466;28;20322;-71
2023/01/18 13:39:45;;;;;;;;;;;25.00;37.30;;;;;;5062991;28;19920;-70
2023/01/18 13:42:25;;;;;;;;;;;25.00;37.00;;;;;;5064112;28;19956;-71
2023/01/18 13:45:10;;;;;;;;;;;25.00;37.00;;;;;;5064116;28;19959;-71
2023/01/18 13:47:42;;;;;;;;;;;25.00;36.90;;;;;;5068739;28;19920;-74
2023/01/18 13:50:37;;;;;;;;;;;24.90;37.00;;;;;;5046441;28;20425;-71
2023/01/18 13:53:17;;;;;;;;;;;25.00;37.00;;;;;;5066159;28;20406;-63
2023/01/18 13:55:46;;;;;;;;;;;24.90;36.90;;;;;;5067977;28;20006;-63
2023/01/18 13:58:18;;;;;;;;;;;24.90;37.40;;;;;;5069599;28;20007;-64
2023/01/18 14:00:46;;;;;;;;;;;24.90;37.10;;;;;;5069410;28;20384;-63
2023/01/18 14:03:25;;;;;;;;;;;24.90;37.30;;;;;;5067372;28;20344;-62
2023/01/18 14:05:55;;;;;;;;;;;24.80;37.30;;;;;;5069602;28;20007;-61
2023/01/18 14:08:26;;;;;;;;;;;24.80;37.40;;;;;;5071384;28;19960;-63
2023/01/18 14:11:02;;;;;;;;;;;24.80;37.50;;;;;;5068584;28;20369;-64
2023/01/18 14:13:48;;;;;;;;;;;24.70;37.30;;;;;;5069638;28;20347;-64
2023/01/18 14:16:18;;;;;;;;;;;24.70;37.40;;;;;;5054824;28;19925;-65
2023/01/18 14:18:59;;;;;;;;;;;24.70;37.40;;;;;;5070902;28;19928;-66
2023/01/18 14:21:46;;;;;;;;;;;24.70;37.40;;;;;;5070037;28;19951;-63
2023/01/18 14:24:33;;;;;;;;;;;24.60;37.50;;;;;;5067632;28;19920;-63
2023/01/18 14:27:01;;;;;;;;;;;24.60;37.60;;;;;;5054194;28;19963;-63
2023/01/18 14:29:36;;;;;;;;;;;24.60;37.60;;;;;;5069259;28;20018;-63
2023/01/18 14:32:05;;;;;;;;;;;24.60;37.60;;;;;;5066851;28;19920;-66
2023/01/18 14:34:34;;;;;;;;;;;24.50;37.60;;;;;;5069180;28;19972;-64
2023/01/18 14:37:20;;;;;;;;;;;24.50;37.60;;;;;;5069660;28;19924;-64
2023/01/18 14:40:00;;;;;;;;;;;24.50;37.60;;;;;;5069585;28;20463;-64
2023/01/18 14:42:27;;;;;;;;;;;24.50;37.60;;;;;;5071094;28;19931;-63
2023/01/18 14:44:54;;;;;;;;;;;24.50;37.60;;;;;;5070924;28;20350;-64
2023/01/18 14:47:26;;;;;;;;;;;24.40;37.60;;;;;;5052479;28;19920;-64
2023/01/18 14:49:54;;;;;;;;;;;24.40;37.60;;;;;;5070986;28;19940;-65
2023/01/18 14:52:24;;;;;;;;;;;24.40;37.70;;;;;;5067782;28;20364;-64
2023/01/18 14:54:53;;;;;;;;;;;24.40;37.70;;;;;;5070405;28;19924;-67
2023/01/18 14:57:21;;;;;;;;;;;24.40;37.80;;;;;;5069861;28;19934;-66
2023/01/18 14:59:52;;;;;;;;;;;24.40;37.80;;;;;;5052322;28;20003;-64
2023/01/18 15:02:24;;;;;;;;;;;24.40;37.90;;;;;;5070699;28;19970;-66
2023/01/18 15:05:08;;;;;;;;;;;24.30;37.90;;;;;;5069155;28;19999;-64
2023/01/18 15:07:38;;;;;;;;;;;24.30;38.00;;;;;;5069624;28;19928;-62
2023/01/18 15:10:06;;;;;;;;;;;24.40;38.00;;;;;;5068717;28;19935;-65
2023/01/18 15:12:34;;;;;;;;;;;24.40;38.20;;;;;;5068260;28;20027;-63
2023/01/18 15:15:07;;;;;;;;;;;24.30;38.30;;;;;;5070921;28;19920;-62